createdAt,value
2019-04-07T00:01:57.442Z,98131.93
2019-04-07T00:04:25.836Z,98141.28
2019-04-07T00:06:54.469Z,98137.50
2019-04-07T00:09:23.208Z,98138.04
2019-04-07T00:11:51.949Z,98134.25
2019-04-07T00:14:20.695Z,98128.22
2019-04-07T00:16:49.536Z,98135.33
2019-04-07T00:19:18.257Z,98135.44
2019-04-07T00:21:46.869Z,98141.20
2019-04-07T00:24:15.296Z,98139.51
2019-04-07T00:26:44.732Z,98134.77
2019-04-07T00:29:13.184Z,98139.63
2019-04-07T00:31:41.604Z,98139.65
2019-04-07T00:34:10.008Z,98138.82
2019-04-07T00:36:38.407Z,98141.45
2019-04-07T00:39:08.622Z,98144.88
2019-04-07T00:41:37.572Z,98143.99
2019-04-07T00:44:06.193Z,98142.69
2019-04-07T00:46:35.510Z,98143.58
2019-04-07T00:49:04.058Z,98149.31
2019-04-07T00:51:33.130Z,98143.27
2019-04-07T00:54:01.944Z,98141.58
2019-04-07T00:56:30.314Z,98139.91
2019-04-07T00:58:59.025Z,98142.08
2019-04-07T01:01:27.428Z,98143.84
2019-04-07T01:03:55.846Z,98138.60
2019-04-07T01:06:24.243Z,98149.91
2019-04-07T01:08:52.665Z,98145.06
2019-04-07T01:11:21.629Z,98141.48
2019-04-07T01:13:50.551Z,98139.77
2019-04-07T01:16:19.730Z,98142.86
2019-04-07T01:18:48.303Z,98142.45
2019-04-07T01:21:16.979Z,98138.09
2019-04-07T01:23:46.054Z,98146.38
2019-04-07T01:26:14.394Z,98147.69
2019-04-07T01:28:42.949Z,98152.03
2019-04-07T01:31:12.030Z,98151.07
2019-04-07T01:33:41.599Z,98148.33
2019-04-07T01:36:11.138Z,98156.06
2019-04-07T01:38:39.838Z,98158.13
2019-04-07T01:41:12.676Z,98154.05
2019-04-07T01:43:51.451Z,98150.43
2019-04-07T01:46:30.605Z,98155.25
2019-04-07T01:49:13.474Z,98155.78
2019-04-07T01:51:55.635Z,98162.45
2019-04-07T01:54:28.385Z,98162.98
2019-04-07T01:56:59.086Z,98159.58
2019-04-07T01:59:45.562Z,98158.30
2019-04-07T02:02:15.908Z,98161.41
2019-04-07T02:05:01.447Z,98151.84
2019-04-07T02:07:40.302Z,98158.88
2019-04-07T02:10:27.472Z,98154.94
2019-04-07T02:13:13.701Z,98153.08
2019-04-07T02:15:49.480Z,98155.24
2019-04-07T02:18:20.018Z,98161.28
2019-04-07T02:20:59.578Z,98151.48
2019-04-07T02:23:35.620Z,98156.56
2019-04-07T02:26:08.396Z,98163.80
2019-04-07T02:28:44.575Z,98155.84
2019-04-07T02:31:23.654Z,98165.83
2019-04-07T02:33:54.458Z,98156.64
2019-04-07T02:36:30.654Z,98162.84
2019-04-07T02:39:05.652Z,98159.81
2019-04-07T02:41:35.738Z,98153.29
2019-04-07T02:44:18.307Z,98150.77
2019-04-07T02:46:57.344Z,98150.45
2019-04-07T02:49:30.379Z,98147.95
2019-04-07T02:52:09.557Z,98151.07
2019-04-07T02:54:43.252Z,98156.73
2019-04-07T02:57:14.262Z,98158.80
2019-04-07T02:59:53.460Z,98169.70
2019-04-07T03:02:33.314Z,98166.56
2019-04-07T03:05:04.813Z,98158.17
2019-04-07T03:07:44.536Z,98158.13
2019-04-07T03:10:25.039Z,98158.32
2019-04-07T03:13:01.218Z,98160.34
2019-04-07T03:15:37.453Z,98168.11
2019-04-07T03:18:07.649Z,98163.75
2019-04-07T03:20:37.932Z,98163.81
2019-04-07T03:23:10.988Z,98166.98
2019-04-07T03:25:58.121Z,98164.52
2019-04-07T03:28:30.973Z,98162.94
2019-04-07T03:31:19.407Z,98158.66
2019-04-07T03:33:59.584Z,98165.36
2019-04-07T03:36:31.068Z,98164.56
2019-04-07T03:39:08.675Z,98173.34
2019-04-07T03:41:42.010Z,98162.86
2019-04-07T03:44:27.660Z,98163.28
2019-04-07T03:46:57.785Z,98156.69
2019-04-07T03:49:33.624Z,98150.43
2019-04-07T03:52:04.678Z,98161.66
2019-04-07T03:54:52.721Z,98154.52
2019-04-07T03:57:23.909Z,98153.09
2019-04-07T03:59:57.824Z,98160.08
2019-04-07T04:02:31.591Z,98151.36
2019-04-07T04:05:10.863Z,98149.25
2019-04-07T04:07:58.692Z,98148.39
2019-04-07T04:10:31.560Z,98144.49
2019-04-07T04:13:05.172Z,98143.71
2019-04-07T04:15:36.420Z,98153.81
2019-04-07T04:18:05.469Z,98152.10
2019-04-07T04:20:34.545Z,98146.02
2019-04-07T04:23:03.934Z,98151.28
2019-04-07T04:25:32.428Z,98155.66
2019-04-07T04:28:01.303Z,98155.27
2019-04-07T04:30:29.982Z,98151.34
2019-04-07T04:32:58.407Z,98162.27
2019-04-07T04:35:26.908Z,98164.03
2019-04-07T04:37:56.397Z,98162.70
2019-04-07T04:40:25.181Z,98161.80
2019-04-07T04:42:54.922Z,98164.30
2019-04-07T04:45:24.554Z,98169.51
2019-04-07T04:47:53.747Z,98173.91
2019-04-07T04:50:22.207Z,98174.80
2019-04-07T04:52:50.951Z,98166.53
2019-04-07T04:55:19.351Z,98167.86
2019-04-07T04:57:48.128Z,98174.45
2019-04-07T05:00:17.835Z,98174.04
2019-04-07T05:02:46.987Z,98174.05
2019-04-07T05:05:15.417Z,98178.47
2019-04-07T05:07:55.228Z,98182.84
2019-04-07T05:10:14.073Z,98180.69
2019-04-07T05:12:42.499Z,98179.33
2019-04-07T05:15:11.132Z,98185.44
2019-04-07T05:17:40.243Z,98190.67
2019-04-07T05:20:09.147Z,98194.98
2019-04-07T05:22:37.998Z,98193.13
2019-04-07T05:25:08.471Z,98198.30
2019-04-07T05:27:36.943Z,98197.39
2019-04-07T05:30:08.007Z,98203.47
2019-04-07T05:32:36.846Z,98205.18
2019-04-07T05:35:07.827Z,98200.78
2019-04-07T05:37:36.510Z,98204.28
2019-04-07T05:40:06.642Z,98203.92
2019-04-07T05:42:35.455Z,98197.46
2019-04-07T05:45:06.448Z,98195.30
2019-04-07T05:47:35.053Z,98192.27
2019-04-07T05:50:05.262Z,98195.80
2019-04-07T05:52:39.261Z,98203.95
2019-04-07T05:55:06.414Z,98208.09
2019-04-07T05:57:35.936Z,98203.22
2019-04-07T06:00:15.699Z,98209.80
2019-04-07T06:02:44.080Z,98209.25
2019-04-07T06:05:12.491Z,98206.95
2019-04-07T06:07:41.548Z,98214.20
2019-04-07T06:10:10.690Z,98216.70
2019-04-07T06:12:41.973Z,98213.02
2019-04-07T06:15:10.830Z,98211.13
2019-04-07T06:17:39.881Z,98207.94
2019-04-07T06:20:12.142Z,98215.72
2019-04-07T06:22:39.104Z,98218.61
2019-04-07T06:25:09.570Z,98212.73
2019-04-07T06:27:38.362Z,98209.63
2019-04-07T06:30:09.784Z,98214.03
2019-04-07T06:32:39.640Z,98222.06
2019-04-07T06:35:12.332Z,98223.50
2019-04-07T06:37:39.743Z,98228.03
2019-04-07T06:40:09.059Z,98225.11
2019-04-07T06:42:37.638Z,98226.89
2019-04-07T06:45:10.847Z,98220.75
2019-04-07T06:47:53.515Z,98230.89
2019-04-07T06:50:23.623Z,98230.96
2019-04-07T06:52:59.561Z,98229.07
2019-04-07T06:55:33.332Z,98231.14
2019-04-07T06:58:16.392Z,98234.09
2019-04-07T07:01:03.313Z,98240.15
2019-04-07T07:03:36.064Z,98241.41
2019-04-07T07:06:05.678Z,98248.06
2019-04-07T07:08:45.174Z,98245.20
2019-04-07T07:11:28.023Z,98251.45
2019-04-07T07:13:54.633Z,98249.77
2019-04-07T07:16:41.312Z,98252.87
2019-04-07T07:19:27.435Z,98258.95
2019-04-07T07:22:15.869Z,98252.66
2019-04-07T07:24:46.635Z,98253.48
2019-04-07T07:27:13.303Z,98253.91
2019-04-07T07:29:45.360Z,98250.86
2019-04-07T07:32:12.613Z,98251.27
2019-04-07T07:34:42.222Z,98249.56
2019-04-07T07:37:11.720Z,98246.97
2019-04-07T07:39:42.591Z,98251.31
2019-04-07T07:42:10.558Z,98253.98
2019-04-07T07:44:39.806Z,98251.34
2019-04-07T07:47:09.050Z,98254.84
2019-04-07T07:49:40.971Z,98267.58
2019-04-07T07:52:07.643Z,98260.52
2019-04-07T07:54:36.766Z,98258.75
2019-04-07T07:57:05.231Z,98257.33
2019-04-07T07:59:37.861Z,98255.94
2019-04-07T08:02:03.817Z,98256.69
2019-04-07T08:04:32.167Z,98255.67
2019-04-07T08:07:02.393Z,98255.87
2019-04-07T08:09:30.718Z,98266.02
2019-04-07T08:12:01.620Z,98264.61
2019-04-07T08:14:29.355Z,98266.22
2019-04-07T08:17:00.186Z,98262.13
2019-04-07T08:19:30.397Z,98260.41
2019-04-07T08:21:58.458Z,98260.18
2019-04-07T08:24:27.259Z,98266.80
2019-04-07T08:26:57.164Z,98261.71
2019-04-07T08:29:26.000Z,98256.70
2019-04-07T08:31:55.424Z,98264.01
2019-04-07T08:34:24.335Z,98259.47
2019-04-07T08:36:53.073Z,98262.22
2019-04-07T08:39:26.289Z,98264.69
2019-04-07T08:41:51.806Z,98266.78
2019-04-07T08:44:20.466Z,98269.64
2019-04-07T08:46:49.641Z,98265.11
2019-04-07T08:49:18.149Z,98272.14
2019-04-07T08:51:46.566Z,98262.13
2019-04-07T08:54:16.937Z,98258.19
2019-04-07T08:56:45.763Z,98252.67
2019-04-07T08:59:17.077Z,98256.35
2019-04-07T09:01:44.696Z,98246.95
2019-04-07T09:04:15.020Z,98249.14
2019-04-07T09:06:43.839Z,98248.05
2019-04-07T09:09:12.349Z,98253.98
2019-04-07T09:11:41.576Z,98253.18
2019-04-07T09:14:11.005Z,98251.02
2019-04-07T09:16:41.609Z,98258.98
2019-04-07T09:19:26.833Z,98256.45
2019-04-07T09:22:15.569Z,98251.67
2019-04-07T09:25:03.511Z,98252.66
2019-04-07T09:27:50.334Z,98258.59
2019-04-07T09:30:24.952Z,98256.70
2019-04-07T09:33:03.736Z,98257.73
2019-04-07T09:35:34.057Z,98259.08
2019-04-07T09:38:13.080Z,98257.48
2019-04-07T09:40:48.351Z,98253.39
2019-04-07T09:43:34.849Z,98249.48
2019-04-07T09:46:07.305Z,98257.97
2019-04-07T09:48:53.411Z,98257.81
2019-04-07T09:51:41.373Z,98254.13
2019-04-07T09:54:15.016Z,98250.40
2019-04-07T09:56:47.519Z,98249.26
2019-04-07T09:59:30.655Z,98255.97
2019-04-07T10:02:10.299Z,98250.82
2019-04-07T10:04:56.942Z,98252.92
2019-04-07T10:07:33.425Z,98255.66
2019-04-07T10:10:10.827Z,98252.02
2019-04-07T10:12:41.438Z,98253.34
2019-04-07T10:15:30.198Z,98250.22
2019-04-07T10:18:00.528Z,98254.38
2019-04-07T10:20:46.945Z,98252.56
2019-04-07T10:23:26.414Z,98255.63
2019-04-07T10:26:00.569Z,98252.92
2019-04-07T10:28:39.156Z,98254.01
2019-04-07T10:31:18.732Z,98255.94
2019-04-07T10:33:48.157Z,98255.84
2019-04-07T10:36:18.179Z,98253.17
2019-04-07T10:38:50.913Z,98253.41
2019-04-07T10:41:37.195Z,98245.91
2019-04-07T10:44:22.632Z,98248.94
2019-04-07T10:46:52.697Z,98242.13
2019-04-07T10:49:38.128Z,98245.92
2019-04-07T10:52:14.762Z,98241.52
2019-04-07T10:54:50.292Z,98238.43
2019-04-07T10:57:20.526Z,98239.57
2019-04-07T10:59:51.306Z,98240.78
2019-04-07T11:02:34.125Z,98238.33
2019-04-07T11:05:07.073Z,98235.02
2019-04-07T11:07:40.401Z,98238.59
2019-04-07T11:10:13.679Z,98242.17
2019-04-07T11:12:46.928Z,98247.08
2019-04-07T11:15:35.145Z,98239.87
2019-04-07T11:18:08.694Z,98244.84
2019-04-07T11:20:38.752Z,98250.02
2019-04-07T11:23:24.151Z,98242.38
2019-04-07T11:26:00.578Z,98250.05
2019-04-07T11:28:30.690Z,98247.27
2019-04-07T11:31:16.812Z,98249.89
2019-04-07T11:34:04.326Z,98246.29
2019-04-07T11:36:44.273Z,98249.10
2019-04-07T11:39:19.007Z,98248.79
2019-04-07T11:41:49.222Z,98250.31
2019-04-07T11:44:20.350Z,98250.86
2019-04-07T11:47:06.754Z,98240.48
2019-04-07T11:49:49.410Z,98242.59
2019-04-07T11:52:36.521Z,98241.08
2019-04-07T11:55:29.145Z,98236.64
2019-04-07T11:58:09.825Z,98240.10
2019-04-07T12:00:35.797Z,98240.39
2019-04-07T12:03:26.048Z,98249.06
2019-04-07T12:05:55.158Z,98246.98
2019-04-07T12:08:41.353Z,98244.77
2019-04-07T12:11:28.672Z,98245.31
2019-04-07T12:13:59.689Z,98242.23
2019-04-07T12:16:32.712Z,98238.51
2019-04-07T12:19:03.341Z,98242.77
2019-04-07T12:21:42.445Z,98243.11
2019-04-07T12:24:28.728Z,98244.04
2019-04-07T12:27:05.714Z,98245.73
2019-04-07T12:29:42.810Z,98249.22
2019-04-07T12:32:19.163Z,98245.73
2019-04-07T12:35:05.330Z,98248.17
2019-04-07T12:37:52.036Z,98244.36
2019-04-07T12:40:38.887Z,98247.92
2019-04-07T12:43:12.117Z,98240.77
2019-04-07T12:45:46.744Z,98242.17
2019-04-07T12:48:16.830Z,98242.23
2019-04-07T12:51:03.442Z,98247.86
2019-04-07T12:53:49.048Z,98235.83
2019-04-07T12:56:22.119Z,98238.47
2019-04-07T12:59:07.981Z,98239.09
2019-04-07T13:01:44.565Z,98232.19
2019-04-07T13:04:15.481Z,98232.75
2019-04-07T13:06:57.765Z,98234.63
2019-04-07T13:09:44.910Z,98235.88
2019-04-07T13:12:27.329Z,98231.70
2019-04-07T13:15:01.167Z,98227.13
2019-04-07T13:17:38.129Z,98227.05
2019-04-07T13:20:09.529Z,98234.31
2019-04-07T13:22:39.566Z,98229.05
2019-04-07T13:25:23.772Z,98228.67
2019-04-07T13:27:59.936Z,98225.22
2019-04-07T13:30:46.338Z,98226.70
2019-04-07T13:33:19.411Z,98229.16
2019-04-07T13:35:51.860Z,98221.87
2019-04-07T13:38:22.077Z,98224.52
2019-04-07T13:41:08.377Z,98218.55
2019-04-07T13:43:42.201Z,98221.02
2019-04-07T13:46:22.055Z,98220.41
2019-04-07T13:48:58.804Z,98220.16
2019-04-07T13:51:28.917Z,98227.90
2019-04-07T13:54:15.336Z,98226.05
2019-04-07T13:56:52.099Z,98223.72
2019-04-07T13:59:25.898Z,98222.27
2019-04-07T14:02:10.958Z,98220.75
2019-04-07T14:04:50.131Z,98220.85
2019-04-07T14:07:20.816Z,98221.05
2019-04-07T14:09:57.137Z,98225.34
2019-04-07T14:12:45.643Z,98220.00
2019-04-07T14:15:15.941Z,98220.30
2019-04-07T14:18:03.567Z,98227.02
2019-04-07T14:20:40.458Z,98226.64
2019-04-07T14:23:16.514Z,98227.41
2019-04-07T14:25:55.967Z,98226.05
2019-04-07T14:28:35.649Z,98224.80
2019-04-07T14:31:15.262Z,98234.91
2019-04-07T14:33:51.045Z,98240.17
2019-04-07T14:36:23.990Z,98235.84
2019-04-07T14:39:02.782Z,98236.12
2019-04-07T14:41:33.267Z,98235.54
2019-04-07T14:44:19.307Z,98239.59
2019-04-07T14:46:50.154Z,98240.28
2019-04-07T14:49:36.892Z,98250.47
2019-04-07T14:52:23.046Z,98249.15
2019-04-07T14:55:05.258Z,98250.61
2019-04-07T14:57:52.432Z,98253.72
2019-04-07T15:00:25.507Z,98255.75
2019-04-07T15:02:52.987Z,98255.75
2019-04-07T15:05:26.085Z,98265.73
2019-04-07T15:08:15.219Z,98265.35
2019-04-07T15:10:46.202Z,98264.55
2019-04-07T15:13:25.808Z,98264.02
2019-04-07T15:15:52.710Z,98274.86
2019-04-07T15:18:21.545Z,98276.95
2019-04-07T15:20:50.539Z,98275.83
2019-04-07T15:23:19.826Z,98281.70
2019-04-07T15:25:48.263Z,98288.05
2019-04-07T15:28:17.433Z,98290.80
2019-04-07T15:30:48.841Z,98287.12
2019-04-07T15:33:16.102Z,98288.88
2019-04-07T15:35:47.271Z,98291.14
2019-04-07T15:38:15.372Z,98297.69
2019-04-07T15:40:44.837Z,98296.78
2019-04-07T15:43:13.241Z,98299.66
2019-04-07T15:45:44.132Z,98292.42
2019-04-07T15:48:12.448Z,98302.97
2019-04-07T15:50:41.725Z,98302.59
2019-04-07T15:53:13.457Z,98306.13
2019-04-07T15:55:47.601Z,98303.28
2019-04-07T15:58:10.737Z,98301.23
2019-04-07T16:00:39.217Z,98311.67
2019-04-07T16:03:08.496Z,98306.87
2019-04-07T16:05:42.217Z,98312.33
2019-04-07T16:08:07.217Z,98322.46
2019-04-07T16:10:36.242Z,98325.94
2019-04-07T16:13:04.990Z,98325.25
2019-04-07T16:15:33.389Z,98327.81
2019-04-07T16:18:05.448Z,98326.67
2019-04-07T16:20:37.245Z,98329.27
2019-04-07T16:23:02.084Z,98324.55
2019-04-07T16:25:30.510Z,98327.80
2019-04-07T16:27:59.073Z,98331.05
2019-04-07T16:30:27.511Z,98336.98
2019-04-07T16:32:59.796Z,98339.89
2019-04-07T16:35:26.393Z,98335.08
2019-04-07T16:37:55.375Z,98341.97
2019-04-07T16:40:23.928Z,98342.09
2019-04-07T16:43:04.813Z,98349.52
2019-04-07T16:45:22.985Z,98348.34
2019-04-07T16:47:51.425Z,98350.30
2019-04-07T16:50:20.612Z,98354.17
2019-04-07T16:52:49.902Z,98365.75
2019-04-07T16:55:35.665Z,98363.17
2019-04-07T16:58:04.570Z,98368.16
2019-04-07T17:00:33.243Z,98368.91
2019-04-07T17:03:02.461Z,98374.18
2019-04-07T17:05:30.916Z,98369.48
2019-04-07T17:07:59.518Z,98378.68
2019-04-07T17:10:30.969Z,98370.70
2019-04-07T17:13:00.400Z,98378.84
2019-04-07T17:15:28.509Z,98379.45
2019-04-07T17:17:57.068Z,98377.23
2019-04-07T17:20:27.867Z,98391.91
2019-04-07T17:22:56.781Z,98386.41
2019-04-07T17:25:25.573Z,98387.36
2019-04-07T17:27:54.019Z,98385.12
2019-04-07T17:30:25.692Z,98380.69
2019-04-07T17:32:53.633Z,98378.59
2019-04-07T17:35:22.029Z,98385.75
2019-04-07T17:37:50.889Z,98388.94
2019-04-07T17:40:21.534Z,98392.98
2019-04-07T17:42:52.740Z,98390.77
2019-04-07T17:45:38.826Z,98392.82
2019-04-07T17:48:14.403Z,98400.54
2019-04-07T17:50:50.457Z,98400.87
2019-04-07T17:53:21.258Z,98407.64
2019-04-07T17:56:06.783Z,98404.81
2019-04-07T17:58:38.458Z,98407.81
2019-04-07T18:01:14.481Z,98418.56
2019-04-07T18:03:46.252Z,98427.19
2019-04-07T18:06:26.139Z,98425.59
2019-04-07T18:09:12.787Z,98430.70
2019-04-07T18:12:02.311Z,98434.57
2019-04-07T18:14:46.630Z,98438.87
2019-04-07T18:17:33.469Z,98435.39
2019-04-07T18:20:09.529Z,98442.32
2019-04-07T18:22:58.185Z,98442.80
2019-04-07T18:25:35.194Z,98446.08
2019-04-07T18:28:06.699Z,98444.67
2019-04-07T18:30:42.868Z,98445.38
2019-04-07T18:33:39.733Z,98447.24
2019-04-07T18:36:27.510Z,98466.05
2019-04-07T18:39:18.202Z,98466.00
2019-04-07T18:41:50.607Z,98471.31
2019-04-07T18:44:20.673Z,98486.30
2019-04-07T18:46:52.365Z,98488.59
2019-04-07T18:49:39.311Z,98492.55
2019-04-07T18:52:12.187Z,98493.18
2019-04-07T18:54:48.212Z,98500.40
2019-04-07T18:57:24.144Z,98510.95
2019-04-07T18:59:59.412Z,98512.98
2019-04-07T19:02:45.323Z,98515.45
2019-04-07T19:05:26.401Z,98518.69
2019-04-07T19:07:59.526Z,98521.34
2019-04-07T19:10:35.657Z,98521.08
2019-04-07T19:13:17.569Z,98527.28
2019-04-07T19:15:58.884Z,98536.72
2019-04-07T19:18:45.285Z,98541.61
2019-04-07T19:21:21.105Z,98542.78
2019-04-07T19:23:53.942Z,98546.75
2019-04-07T19:26:39.301Z,98544.95
2019-04-07T19:29:26.227Z,98543.56
2019-04-07T19:31:59.719Z,98541.73
2019-04-07T19:34:32.898Z,98545.42
2019-04-07T19:37:22.950Z,98546.64
2019-04-07T19:40:09.332Z,98559.42
2019-04-07T19:42:43.629Z,98555.96
2019-04-07T19:45:26.912Z,98555.81
2019-04-07T19:48:13.434Z,98556.70
2019-04-07T19:50:46.357Z,98557.58
2019-04-07T19:53:30.975Z,98562.36
2019-04-07T19:56:16.459Z,98570.70
2019-04-07T19:58:47.048Z,98561.05
2019-04-07T20:01:29.180Z,98563.82
2019-04-07T20:04:10.981Z,98572.48
2019-04-07T20:06:46.393Z,98563.48
2019-04-07T20:09:28.468Z,98563.82
2019-04-07T20:12:05.197Z,98575.37
2019-04-07T20:14:59.342Z,98574.25
2019-04-07T20:17:41.510Z,98576.09
2019-04-07T20:20:12.593Z,98576.52
2019-04-07T20:22:58.858Z,98575.16
2019-04-07T20:25:32.186Z,98576.08
2019-04-07T20:28:15.292Z,98577.04
2019-04-07T20:30:49.718Z,98575.38
2019-04-07T20:33:20.620Z,98574.21
2019-04-07T20:35:53.903Z,98580.47
2019-04-07T20:38:29.983Z,98574.84
2019-04-07T20:41:17.071Z,98578.01
2019-04-07T20:43:53.255Z,98582.06
2019-04-07T20:46:23.788Z,98582.55
2019-04-07T20:49:09.846Z,98582.06
2019-04-07T20:51:56.431Z,98582.97
2019-04-07T20:54:34.520Z,98577.74
2019-04-07T20:57:07.229Z,98580.91
2019-04-07T20:59:56.929Z,98577.89
2019-04-07T21:02:32.684Z,98580.59
2019-04-07T21:05:23.985Z,98585.53
2019-04-07T21:07:51.854Z,98581.58
2019-04-07T21:10:37.915Z,98581.89
2019-04-07T21:13:18.433Z,98583.67
2019-04-07T21:15:51.629Z,98582.92
2019-04-07T21:18:34.016Z,98583.09
2019-04-07T21:21:11.870Z,98581.45
2019-04-07T21:23:53.753Z,98584.21
2019-04-07T21:26:35.978Z,98599.21
2019-04-07T21:29:16.089Z,98585.68
2019-04-07T21:31:48.919Z,98592.16
2019-04-07T21:34:21.367Z,98591.19
2019-04-07T21:36:54.361Z,98592.16
2019-04-07T21:39:29.478Z,98588.88
2019-04-07T21:42:19.317Z,98589.87
2019-04-07T21:44:51.667Z,98596.95
2019-04-07T21:47:28.015Z,98597.02
2019-04-07T21:50:15.327Z,98598.91
2019-04-07T21:52:52.912Z,98598.95
2019-04-07T21:55:37.184Z,98607.69
2019-04-07T21:58:10.352Z,98609.41
2019-04-07T22:00:43.511Z,98609.36
2019-04-07T22:03:17.166Z,98605.87
2019-04-07T22:05:48.941Z,98606.81
2019-04-07T22:08:30.636Z,98605.11
2019-04-07T22:10:59.413Z,98605.15
2019-04-07T22:13:28.703Z,98608.69
2019-04-07T22:16:00.608Z,98608.32
2019-04-07T22:18:27.343Z,98612.70
2019-04-07T22:20:57.012Z,98616.22
2019-04-07T22:23:29.392Z,98611.91
2019-04-07T22:25:55.954Z,98614.55
2019-04-07T22:28:27.697Z,98608.88
2019-04-07T22:30:55.533Z,98611.51
2019-04-07T22:33:25.691Z,98610.23
2019-04-07T22:35:54.052Z,98611.55
2019-04-07T22:38:23.729Z,98611.13
2019-04-07T22:40:52.344Z,98612.44
2019-04-07T22:43:21.251Z,98615.95
2019-04-07T22:45:59.090Z,98612.44
2019-04-07T22:48:22.816Z,98612.39
2019-04-07T22:50:50.159Z,98612.39
2019-04-07T22:53:24.185Z,98620.73
2019-04-07T22:55:48.700Z,98621.63
2019-04-07T22:58:18.024Z,98621.63
2019-04-07T23:00:46.667Z,98631.24
2019-04-07T23:03:15.573Z,98629.50
2019-04-07T23:05:44.119Z,98634.75
2019-04-07T23:08:12.531Z,98630.84
2019-04-07T23:10:40.872Z,98636.13
2019-04-07T23:13:09.295Z,98640.92
2019-04-07T23:15:43.797Z,98640.48
2019-04-07T23:18:07.822Z,98641.82
2019-04-07T23:20:36.261Z,98639.62
2019-04-07T23:23:04.752Z,98636.14
2019-04-07T23:25:33.217Z,98644.86
2019-04-07T23:28:02.700Z,98646.17
2019-04-07T23:30:31.444Z,98649.67
2019-04-07T23:32:59.845Z,98641.81
2019-04-07T23:35:28.784Z,98644.42
2019-04-07T23:37:57.477Z,98638.75
2019-04-07T23:40:26.004Z,98637.86
2019-04-07T23:42:55.104Z,98639.61
2019-04-07T23:45:23.489Z,98637.00
2019-04-07T23:47:52.562Z,98637.83
2019-04-07T23:50:21.182Z,98649.20
2019-04-07T23:52:49.998Z,98642.20
2019-04-07T23:55:18.406Z,98646.58
2019-04-07T23:57:46.824Z,98641.33
